Time;durP1;ratioP1;P1;durP2;ratioP2;P2;SDS_P1;SDS_P2;PMS_P1;PMS_P2;Temp;Humidity;BMP_temperature;BMP_pressure;BME280_temperature;BME280_humidity;BME280_pressure;Samples;Min_cycle;Max_cycle;Signal;HPM_P1;HPM_P2
2022/05/31 00:01:06;;;;;;;4.10;1.10;;;;;;;-145.69;54.91;71269.06;5074413;28;20672;-84
2022/05/31 00:03:33;;;;;;;1.70;1.10;;;;;;;-145.69;55.67;71265.09;5074450;28;20726;-82
2022/05/31 00:06:01;;;;;;;2.40;1.30;;;;;;;-145.69;54.52;71257.13;5074955;28;20453;-84
2022/05/31 00:08:27;;;;;;;2.47;1.10;;;;;;;-145.69;56.29;71261.13;5074396;28;20210;-84
2022/05/31 00:10:54;;;;;;;3.27;1.00;;;;;;;-145.69;56.00;71263.09;5074197;28;20649;-84
2022/05/31 00:13:20;;;;;;;2.67;1.40;;;;;;;-145.69;55.11;71247.19;5073043;28;20229;-83
2022/05/31 00:15:47;;;;;;;4.77;1.67;;;;;;;-145.69;54.14;71245.19;5073647;28;20649;-84
2022/05/31 00:18:13;;;;;;;5.80;1.30;;;;;;;-145.69;54.62;71251.16;5074055;28;20218;-86
2022/05/31 00:20:40;;;;;;;4.73;1.50;;;;;;;-145.69;56.24;71255.16;5074084;28;20203;-85
2022/05/31 00:23:09;;;;;;;2.67;1.07;;;;;;;-145.69;56.03;71241.22;5074668;28;20199;-84
2022/05/31 00:25:36;;;;;;;4.23;1.30;;;;;;;-145.69;56.84;71239.22;5074120;28;20198;-83
2022/05/31 00:28:03;;;;;;;4.33;1.33;;;;;;;-145.69;56.19;71231.28;5074132;28;20747;-82
2022/05/31 00:30:29;;;;;;;1.70;1.03;;;;;;;-145.69;55.58;71225.31;5074228;28;20203;-84
2022/05/31 00:32:56;;;;;;;3.23;1.00;;;;;;;-145.69;57.56;71249.19;5074381;28;20206;-84
2022/05/31 00:35:27;;;;;;;2.27;1.30;;;;;;;-145.69;57.89;71257.13;5074079;28;20444;-83
2022/05/31 00:37:55;;;;;;;1.40;1.10;;;;;;;-145.69;58.11;71247.19;5074172;28;20206;-84
2022/05/31 00:40:25;;;;;;;4.20;1.27;;;;;;;-145.69;57.20;71251.16;5073956;28;20211;-84
2022/05/31 00:42:54;;;;;;;2.47;1.20;;;;;;;-145.69;58.74;71263.09;5074245;28;20209;-85
2022/05/31 00:45:24;;;;;;;2.00;1.20;;;;;;;-145.69;59.12;71267.09;5073933;28;20203;-84
2022/05/31 00:47:51;;;;;;;3.53;1.37;;;;;;;-145.69;58.48;71275.03;5073147;28;20317;-83
2022/05/31 00:50:26;;;;;;;3.97;1.35;;;;;;;-145.69;58.61;71286.97;5073232;28;20831;-83
2022/05/31 00:52:57;;;;;;;5.70;1.30;;;;;;;-145.69;61.32;71298.94;5056913;28;20233;-84
2022/05/31 00:55:28;;;;;;;2.27;1.40;;;;;;;-145.69;61.09;71302.91;5053795;28;20199;-85
2022/05/31 00:57:59;;;;;;;2.13;1.13;;;;;;;-145.69;58.58;71288.97;5053691;28;20199;-84
2022/05/31 01:00:26;;;;;;;4.47;1.10;;;;;;;-145.69;59.77;71298.94;5062696;28;20195;-84
2022/05/31 01:02:53;;;;;;;3.97;1.20;;;;;;;-145.69;59.38;71302.91;5073875;28;20199;-83
2022/05/31 01:05:20;;;;;;;1.60;1.10;;;;;;;-145.69;60.19;71298.94;5073857;28;20203;-84
2022/05/31 01:07:47;;;;;;;1.77;1.40;;;;;;;-145.69;59.92;71290.97;5073528;28;20194;-82
2022/05/31 01:10:16;;;;;;;2.47;1.23;;;;;;;-145.69;61.21;71292.94;5073116;28;20211;-83
2022/05/31 01:12:47;;;;;;;4.47;1.40;;;;;;;-145.69;62.07;71286.97;5073037;28;20287;-85
2022/05/31 01:15:15;;;;;;;3.17;1.30;;;;;;;-145.69;60.65;71267.09;5073519;28;20696;-82
2022/05/31 01:17:43;;;;;;;2.40;1.10;;;;;;;-145.69;61.69;71263.09;5072926;28;20203;-85
2022/05/31 01:20:12;;;;;;;2.03;1.30;;;;;;;-145.69;62.19;71279.03;5073265;28;20313;-84
2022/05/31 01:22:42;;;;;;;3.53;1.30;;;;;;;-145.69;61.76;71263.09;5073319;28;20607;-85
2022/05/31 01:25:29;;;;;;;3.13;1.50;;;;;;;-145.69;63.28;71271.06;5072824;28;20222;-82
2022/05/31 01:28:06;;;;;;;2.83;1.30;;;;;;;-145.69;62.27;71259.13;5073130;28;20202;-83
2022/05/31 01:30:37;;;;;;;3.90;1.40;;;;;;;-145.69;63.98;71283.00;5070910;28;20252;-82
2022/05/31 01:33:08;;;;;;;4.30;1.47;;;;;;;-145.69;63.51;71251.16;5073100;28;20206;-82
2022/05/31 01:35:36;;;;;;;3.13;1.57;;;;;;;-145.69;63.40;71261.13;5062213;28;20203;-84
2022/05/31 01:38:08;;;;;;;2.97;1.50;;;;;;;-145.69;64.02;71265.09;5057556;28;20207;-85
2022/05/31 01:40:41;;;;;;;4.67;1.40;;;;;;;-145.69;63.75;71263.09;5073185;28;20194;-83
2022/05/31 01:43:07;;;;;;;3.10;1.33;;;;;;;-145.69;63.42;71271.06;5072975;28;20245;-84
2022/05/31 01:45:39;;;;;;;3.20;1.40;;;;;;;-145.69;64.21;71271.06;5073106;28;20573;-84
2022/05/31 01:48:07;;;;;;;3.27;1.40;;;;;;;-145.69;62.96;71259.13;5072615;28;20206;-82
2022/05/31 01:50:37;;;;;;;3.13;1.60;;;;;;;-145.69;64.06;71263.09;5053150;28;20210;-83
2022/05/31 01:53:05;;;;;;;2.60;1.57;;;;;;;-145.69;63.54;71286.97;5052295;28;20601;-82
2022/05/31 01:55:34;;;;;;;3.93;1.67;;;;;;;-145.69;64.26;71298.94;5052506;28;20227;-82
2022/05/31 01:58:05;;;;;;;3.73;1.50;;;;;;;-145.69;65.13;71306.88;5052949;28;20205;-80
2022/05/31 02:00:31;;;;;;;2.77;1.10;;;;;;;-145.69;65.68;71326.78;5055181;28;20206;-82
2022/05/31 02:03:00;;;;;;;3.43;1.20;;;;;;;-145.69;67.11;71342.69;5072449;28;20198;-83
2022/05/31 02:05:27;;;;;;;5.10;1.27;;;;;;;-145.69;68.52;71318.81;5072497;28;20551;-82
2022/05/31 02:07:55;;;;;;;5.13;1.37;;;;;;;-145.69;66.78;71288.97;5072682;28;20199;-80
2022/05/31 02:10:23;;;;;;;3.73;1.60;;;;;;;-145.69;67.05;71304.91;5072589;28;20676;-80
2022/05/31 02:12:50;;;;;;;2.27;1.40;;;;;;;-145.69;67.26;71310.84;5072170;28;20618;-81
2022/05/31 02:15:17;;;;;;;2.53;1.33;;;;;;;-145.69;66.68;71346.69;5072461;28;20703;-82
2022/05/31 02:17:44;;;;;;;4.13;1.17;;;;;;;-145.69;68.92;71378.50;5072556;28;20205;-83
2022/05/31 02:20:11;;;;;;;1.57;1.17;;;;;;;-145.69;70.05;71396.44;5072670;28;20213;-83
2022/05/31 02:22:38;;;;;;;1.67;1.13;;;;;;;-145.69;69.94;71406.38;5072811;28;20207;-83
2022/05/31 02:25:07;;;;;;;0.93;0.93;;;;;;;-145.69;70.68;71426.28;5072155;28;20198;-81
2022/05/31 02:27:34;;;;;;;2.80;1.20;;;;;;;-145.69;71.43;71442.19;5071707;28;20446;-81
2022/05/31 02:30:00;;;;;;;1.53;1.10;;;;;;;-145.69;72.02;71434.22;5072573;28;20297;-82
2022/05/31 02:32:27;;;;;;;2.83;1.40;;;;;;;-145.69;72.77;71456.13;5072909;28;20553;-82
2022/05/31 02:34:54;;;;;;;2.27;1.20;;;;;;;-145.69;74.96;71470.06;5072035;28;20234;-83
2022/05/31 02:37:22;;;;;;;1.67;1.37;;;;;;;-145.69;75.20;71482.00;5072028;28;20206;-83
2022/05/31 02:39:49;;;;;;;3.77;1.53;;;;;;;-145.69;74.74;71489.94;5074362;28;20719;-83
2022/05/31 02:42:17;;;;;;;2.60;1.10;;;;;;;-145.69;75.09;71472.03;5076453;28;20209;-82
2022/05/31 02:44:44;;;;;;;3.33;1.10;;;;;;;-145.69;76.46;71491.94;5075967;28;20662;-83
2022/05/31 02:47:11;;;;;;;4.63;1.63;;;;;;;-145.69;78.84;71505.88;5072780;28;20658;-83
2022/05/31 02:49:39;;;;;;;3.57;1.73;;;;;;;-145.69;78.01;71517.81;5075835;28;20195;-83
2022/05/31 02:52:06;;;;;;;4.30;1.27;;;;;;;-145.69;78.51;71525.78;5075772;28;20202;-83
2022/05/31 02:54:33;;;;;;;2.17;1.30;;;;;;;-145.69;78.57;71529.75;5075760;28;20222;-84
2022/05/31 02:57:00;;;;;;;3.43;1.30;;;;;;;-145.69;80.32;71533.72;5075750;28;20203;-82
2022/05/31 02:59:30;;;;;;;2.60;1.40;;;;;;;-145.69;82.07;71541.69;5075944;28;20649;-84
2022/05/31 03:01:57;;;;;;;5.63;1.50;;;;;;;-145.69;82.91;71555.63;5075890;28;20206;-84
2022/05/31 03:04:25;;;;;;;7.90;1.27;;;;;;;-145.69;84.86;71565.56;5076022;28;20661;-83
2022/05/31 03:06:51;;;;;;;1.60;1.00;;;;;;;-145.69;86.46;71597.41;5076055;28;20226;-83
2022/05/31 03:09:18;;;;;;;1.87;1.10;;;;;;;-145.69;86.78;71601.38;5075378;28;20198;-83
2022/05/31 03:11:49;;;;;;;3.53;1.30;;;;;;;-145.69;86.86;71613.31;5075815;28;20211;-83
2022/05/31 03:14:21;;;;;;;2.57;1.53;;;;;;;-145.69;91.29;71639.19;5075884;28;20227;-81
2022/05/31 03:16:54;;;;;;;3.37;1.30;;;;;;;-145.69;93.72;71649.16;5075541;28;20546;-81
2022/05/31 03:19:26;;;;;;;3.03;1.40;;;;;;;-145.69;94.93;71653.13;5075575;28;20246;-81
2022/05/31 03:21:56;;;;;;;2.00;1.43;;;;;;;-145.69;95.98;71669.03;5075466;28;20248;-80
2022/05/31 03:24:27;;;;;;;3.63;1.40;;;;;;;-145.69;97.71;71671.03;5075774;28;20207;-81
2022/05/31 03:26:57;;;;;;;6.67;1.60;;;;;;;-145.69;98.42;71698.91;5074865;28;20774;-81
2022/05/31 03:29:24;;;;;;;2.20;1.30;;;;;;;-145.69;100.00;71698.91;5075319;28;20718;-81
2022/05/31 03:31:52;;;;;;;3.90;1.40;;;;;;;-145.69;100.00;71710.84;5075586;28;20206;-80
2022/05/31 03:34:19;;;;;;;1.70;1.37;;;;;;;-145.69;100.00;71712.81;5075155;28;20233;-81
2022/05/31 03:36:45;;;;;;;2.60;1.60;;;;;;;-145.69;100.00;71724.75;5075114;28;20680;-81
2022/05/31 03:39:11;;;;;;;5.10;1.57;;;;;;;-145.69;100.00;71728.75;5075207;28;20576;-81
2022/05/31 03:41:38;;;;;;;2.93;1.70;;;;;;;-145.69;100.00;71736.72;5075130;28;20199;-81
2022/05/31 03:44:06;;;;;;;3.67;1.77;;;;;;;-145.69;100.00;71746.66;5075011;28;20658;-81
2022/05/31 03:46:32;;;;;;;2.90;1.70;;;;;;;-145.69;100.00;71732.72;5074568;28;20913;-82
2022/05/31 03:49:00;;;;;;;4.73;1.90;;;;;;;-145.69;100.00;71744.66;5074717;28;20244;-81
2022/05/31 03:51:27;;;;;;;1.60;1.40;;;;;;;-145.69;100.00;71702.88;5073476;28;20191;-81
2022/05/31 03:53:53;;;;;;;1.93;1.47;;;;;;;-145.69;100.00;71653.13;5074911;28;20658;-81
2022/05/31 03:56:20;;;;;;;3.10;1.53;;;;;;;-145.69;100.00;71641.19;5074981;28;20207;-81
2022/05/31 03:58:46;;;;;;;5.57;1.60;;;;;;;-145.69;100.00;71641.19;5074990;28;20248;-81
2022/05/31 04:01:12;;;;;;;2.07;1.60;;;;;;;-145.69;100.00;71641.19;5074532;28;20653;-80
2022/05/31 04:03:39;;;;;;;2.50;1.53;;;;;;;-145.69;99.73;71605.38;5074293;28;20199;-80
2022/05/31 04:06:07;;;;;;;2.13;1.60;;;;;;;-145.69;99.76;71621.28;5075156;28;20207;-80
2022/05/31 04:08:34;;;;;;;2.20;1.57;;;;;;;-145.69;99.90;71621.28;5075102;28;20206;-81
2022/05/31 04:11:01;;;;;;;2.70;1.50;;;;;;;-145.69;100.00;71617.31;5074766;28;20203;-82
2022/05/31 04:13:28;;;;;;;2.50;1.50;;;;;;;-145.69;100.00;71599.41;5076276;28;20198;-81
2022/05/31 04:16:06;;;;;;;2.80;1.63;;;;;;;-145.69;100.00;71579.50;5082105;28;20242;-81
2022/05/31 04:18:33;;;;;;;2.63;1.40;;;;;;;-145.69;99.95;71565.56;5079781;28;20198;-80
2022/05/31 04:21:03;;;;;;;3.10;1.50;;;;;;;-145.69;96.81;71541.69;5079260;28;20202;-81
2022/05/31 04:26:15;;;;;;;1.97;1.43;;;;;;;-145.69;95.85;71525.78;5074986;28;20238;-80
2022/05/31 04:28:42;;;;;;;1.70;1.20;;;;;;;-145.69;95.09;71501.88;5074766;28;20206;-81
2022/05/31 04:31:10;;;;;;;2.10;1.50;;;;;;;-145.69;95.27;71495.91;5073630;28;20206;-81
2022/05/31 04:33:37;;;;;;;2.43;1.43;;;;;;;-145.69;94.04;71478.00;5074965;28;20202;-81
2022/05/31 04:36:06;;;;;;;6.13;1.50;;;;;;;-145.69;96.31;71472.03;5074283;28;20693;-81
2022/05/31 04:38:35;;;;;;;2.87;1.80;;;;;;;-145.69;95.13;71448.16;5074152;28;20588;-81
2022/05/31 04:41:01;;;;;;;3.77;1.33;;;;;;;-145.69;93.45;71426.28;5058013;28;20639;-81
2022/05/31 04:43:28;;;;;;;5.40;1.53;;;;;;;-145.69;91.15;71406.38;5054333;28;20203;-81
2022/05/31 04:45:54;;;;;;;5.70;2.17;;;;;;;-145.69;90.69;71378.50;5054343;28;20211;-82
2022/05/31 04:48:21;;;;;;;4.70;1.37;;;;;;;-145.69;92.14;71372.53;5066307;28;20244;-81
2022/05/31 04:50:48;;;;;;;2.20;1.40;;;;;;;-145.69;90.59;71364.59;5074124;28;20222;-81
2022/05/31 04:53:14;;;;;;;3.80;1.53;;;;;;;-145.69;93.82;71370.56;5074048;28;20802;-81
2022/05/31 04:55:42;;;;;;;3.30;1.20;;;;;;;-145.69;92.96;71366.56;5073793;28;20230;-81
2022/05/31 04:58:09;;;;;;;1.73;1.40;;;;;;;-145.69;91.98;71386.47;5073986;28;20194;-81
2022/05/31 05:00:35;;;;;;;6.63;1.47;;;;;;;-145.69;92.07;71392.44;5074015;28;20229;-81
2022/05/31 05:03:02;;;;;;;3.37;1.40;;;;;;;-145.69;95.39;71386.47;5073549;28;20680;-81
2022/05/31 05:05:28;;;;;;;3.20;1.97;;;;;;;-145.69;96.48;71386.47;5073602;28;20207;-81
2022/05/31 05:07:54;;;;;;;3.50;1.70;;;;;;;-145.69;91.56;71358.63;5073494;28;20206;-80
2022/05/31 05:10:21;;;;;;;3.83;1.30;;;;;;;-145.69;88.56;71316.84;5073601;28;20198;-81
2022/05/31 05:12:49;;;;;;;2.40;1.37;;;;;;;-145.69;87.37;71273.06;5073374;28;20217;-81
2022/05/31 05:15:15;;;;;;;2.20;1.50;;;;;;;-145.69;85.60;71225.31;5073735;28;20234;-81
2022/05/31 05:17:42;;;;;;;4.27;1.40;;;;;;;-145.69;84.34;71193.47;5073319;28;20210;-81
2022/05/31 05:20:10;;;;;;;1.67;1.33;;;;;;;-145.69;81.47;71171.56;5073546;28;20691;-82
2022/05/31 05:22:36;;;;;;;5.67;1.47;;;;;;;-145.69;83.53;71131.78;5073353;28;20198;-81
2022/05/31 05:25:03;;;;;;;3.13;1.30;;;;;;;-145.69;78.23;71092.00;5073060;28;20221;-81
2022/05/31 05:27:30;;;;;;;2.37;1.13;;;;;;;-145.69;80.14;71072.09;5073265;28;20238;-81
2022/05/31 05:32:41;;;;;;;2.93;1.10;;;;;;;-145.69;76.17;71032.28;5073131;28;20209;-81
2022/05/31 05:35:09;;;;;;;2.67;1.30;;;;;;;-145.69;76.20;71060.16;5072780;28;20268;-81
2022/05/31 05:37:35;;;;;;;3.37;1.37;;;;;;;-145.69;75.08;71026.31;5053244;28;20670;-81
2022/05/31 05:40:02;;;;;;;3.17;1.20;;;;;;;-145.69;77.87;71018.38;5053464;28;20211;-81
2022/05/31 05:42:28;;;;;;;2.83;1.35;;;;;;;-145.69;76.44;70990.50;5053479;28;20562;-81
2022/05/31 05:44:55;;;;;;;3.35;1.35;;;;;;;-145.69;76.30;70966.63;5053221;28;20574;-81
2022/05/31 05:47:23;;;;;;;3.65;1.40;;;;;;;-145.69;75.26;70972.59;5054305;28;20249;-81
2022/05/31 05:49:50;;;;;;;4.10;1.20;;;;;;;-145.69;75.87;70936.78;5072793;28;20198;-81
2022/05/31 05:52:16;;;;;;;2.25;1.10;;;;;;;-145.69;73.93;70922.88;5072918;28;20253;-80
2022/05/31 05:54:43;;;;;;;2.78;1.02;;;;;;;-145.69;73.10;70885.06;5072814;28;20716;-81
2022/05/31 05:57:10;;;;;;;1.80;1.00;;;;;;;-145.69;68.23;70853.22;5072984;28;20257;-81
2022/05/31 05:59:36;;;;;;;2.70;1.00;;;;;;;-145.69;70.17;70865.16;5072531;28;20199;-82
2022/05/31 06:02:07;;;;;;;1.88;1.00;;;;;;;-145.69;66.85;70829.34;5072919;28;20608;-82
2022/05/31 06:04:41;;;;;;;2.15;1.13;;;;;;;-145.69;62.13;70749.78;5072768;28;20209;-80
2022/05/31 06:07:15;;;;;;;1.55;0.90;;;;;;;-145.69;63.16;70777.63;5073128;28;20201;-82
2022/05/31 06:09:48;;;;;;;1.85;1.10;;;;;;;-145.69;62.79;70761.72;5072598;28;20687;-82
2022/05/31 06:12:18;;;;;;;2.00;1.10;;;;;;;-145.69;64.09;70793.53;5072840;28;20818;-81
2022/05/31 06:14:52;;;;;;;3.13;1.08;;;;;;;-145.69;60.85;70785.59;5074677;28;20267;-81
2022/05/31 06:17:24;;;;;;;3.35;1.23;;;;;;;-145.69;61.76;70765.69;5077103;28;20195;-81
2022/05/31 06:19:52;;;;;;;1.45;0.80;;;;;;;-145.69;60.36;70690.09;5076774;28;20206;-81
2022/05/31 06:22:21;;;;;;;2.97;1.38;;;;;;;-145.69;57.08;70638.34;5077060;28;20217;-81
2022/05/31 06:24:48;;;;;;;2.55;1.10;;;;;;;-145.69;56.64;70694.06;5076459;28;20211;-81
2022/05/31 06:27:15;;;;;;;1.98;1.00;;;;;;;-145.69;58.29;70648.31;5076685;28;20249;-82
2022/05/31 06:29:42;;;;;;;3.30;1.10;;;;;;;-145.69;54.79;70634.38;5076592;28;20202;-81
2022/05/31 06:32:09;;;;;;;3.88;0.90;;;;;;;-145.69;57.63;70664.22;5063603;28;20206;-82
2022/05/31 06:34:37;;;;;;;2.45;1.05;;;;;;;-145.69;64.20;70614.47;5056594;28;20206;-82
2022/05/31 06:37:08;;;;;;;3.78;1.45;;;;;;;-145.69;64.11;70602.56;5066274;28;20215;-82
2022/05/31 06:39:35;;;;;;;2.10;0.90;;;;;;;-145.69;54.90;70550.81;5076549;28;20198;-82
2022/05/31 06:42:02;;;;;;;1.88;1.13;;;;;;;-145.69;55.09;70552.81;5076398;28;20226;-83
2022/05/31 06:44:31;;;;;;;1.73;1.40;;;;;;;-145.69;55.29;70511.03;5076332;28;20728;-81
2022/05/31 06:46:58;;;;;;;1.95;1.05;;;;;;;-145.69;54.41;70487.16;5076400;28;20198;-80
2022/05/31 06:49:24;;;;;;;1.67;0.93;;;;;;;-145.69;55.54;70423.50;5075811;28;20252;-81
2022/05/31 06:57:20;;;;;;;3.03;1.25;;;;;;;-145.69;53.95;70536.91;5076267;28;20234;-81
2022/05/31 06:59:47;;;;;;;2.97;1.52;;;;;;;-145.69;56.95;70588.63;5075920;28;20191;-80
2022/05/31 07:02:14;;;;;;;1.60;1.20;;;;;;;-145.69;53.81;70622.44;5076255;28;20221;-80
2022/05/31 07:04:40;;;;;;;1.17;0.95;;;;;;;-145.69;55.60;70554.81;5076005;28;20282;-80
2022/05/31 07:07:07;;;;;;;3.20;1.10;;;;;;;-145.69;53.68;70550.81;5075520;28;20198;-81
2022/05/31 07:09:34;;;;;;;1.75;1.08;;;;;;;-145.69;51.20;70511.03;5076150;28;20225;-80
2022/05/31 07:12:02;;;;;;;2.13;1.10;;;;;;;-145.69;58.02;70588.63;5075562;28;20194;-80
2022/05/31 07:14:28;;;;;;;2.75;1.15;;;;;;;-145.69;59.00;70598.56;5075552;28;20199;-82
2022/05/31 07:16:57;;;;;;;1.92;0.98;;;;;;;-145.69;56.72;70594.59;5075938;28;20237;-80
2022/05/31 07:19:23;;;;;;;3.08;1.20;;;;;;;-145.69;60.69;70519.00;5075725;28;20209;-80
2022/05/31 07:21:50;;;;;;;6.57;1.33;;;;;;;-145.69;54.31;70554.81;5075836;28;20195;-80
2022/05/31 07:24:16;;;;;;;2.78;1.20;;;;;;;-145.69;54.74;70534.91;5075365;28;20669;-80
2022/05/31 07:26:43;;;;;;;3.20;1.23;;;;;;;-145.69;51.25;70457.31;5074952;28;20325;-80
2022/05/31 07:29:12;;;;;;;7.00;1.50;;;;;;;-145.69;51.05;70475.22;5075317;28;20649;-80
2022/05/31 07:31:41;;;;;;;2.25;1.20;;;;;;;-145.69;55.13;70421.50;5075521;28;20194;-80
2022/05/31 07:34:11;;;;;;;4.65;1.10;;;;;;;-145.69;52.65;70489.16;5075277;28;20195;-79
2022/05/31 07:36:38;;;;;;;4.13;1.30;;;;;;;-145.69;51.50;70513.03;5075276;28;20309;-81
2022/05/31 07:39:09;;;;;;;4.22;1.25;;;;;;;-145.69;53.85;70501.09;5075432;28;20226;-79
2022/05/31 07:41:36;;;;;;;9.90;1.25;;;;;;;-145.69;52.13;70495.13;5075276;28;20693;-78
2022/05/31 07:44:06;;;;;;;2.42;1.27;;;;;;;-145.69;52.88;70507.06;5075194;28;20206;-77
2022/05/31 07:46:34;;;;;;;3.28;1.17;;;;;;;-145.69;52.68;70487.16;5074886;28;20202;-77
2022/05/31 07:49:01;;;;;;;4.68;1.50;;;;;;;-145.69;56.33;70417.53;5074852;28;20195;-77
2022/05/31 07:51:28;;;;;;;5.15;1.33;;;;;;;-145.69;54.34;70330.00;5075255;28;20214;-79
2022/05/31 07:53:55;;;;;;;5.20;1.17;;;;;;;-145.69;46.95;70312.09;5074861;28;20199;-77
2022/05/31 07:56:25;;;;;;;2.83;0.98;;;;;;;-145.69;49.82;70220.59;5075075;28;20226;-78
2022/05/31 07:58:51;;;;;;;6.95;1.10;;;;;;;-145.69;50.05;70234.50;5074703;28;20610;-77
2022/05/31 08:01:22;;;;;;;3.95;1.00;;;;;;;-145.69;48.41;70320.06;5074625;28;20205;-79
2022/05/31 08:03:50;;;;;;;2.90;1.25;;;;;;;-145.69;53.07;70298.16;5074844;28;20637;-79
2022/05/31 08:06:21;;;;;;;1.85;1.08;;;;;;;-145.69;48.26;70252.41;5074698;28;20210;-78
2022/05/31 08:08:49;;;;;;;3.08;1.08;;;;;;;-145.69;46.42;70286.25;5074290;28;20198;-78
2022/05/31 08:11:18;;;;;;;2.20;0.82;;;;;;;-145.69;53.65;70256.41;5067450;28;20206;-78
2022/05/31 08:13:45;;;;;;;3.70;1.15;;;;;;;-145.69;48.08;70232.53;5074699;28;20203;-78
2022/05/31 08:16:14;;;;;;;1.45;1.00;;;;;;;-145.69;46.08;70164.88;5074257;28;20222;-79
2022/05/31 08:18:42;;;;;;;3.28;1.33;;;;;;;-145.69;46.91;70200.69;5073577;28;20199;-78
2022/05/31 08:21:13;;;;;;;4.00;1.25;;;;;;;-145.69;47.53;70152.97;5074481;28;20203;-77
2022/05/31 08:23:41;;;;;;;5.78;1.23;;;;;;;-145.69;48.99;70248.44;5074457;28;20213;-77
2022/05/31 08:26:08;;;;;;;4.13;1.50;;;;;;;-145.69;51.41;70332.00;5074097;28;20254;-78
2022/05/31 08:28:35;;;;;;;2.92;1.42;;;;;;;-145.69;49.86;70387.69;5066894;28;20196;-78
2022/05/31 08:31:09;;;;;;;5.00;1.67;;;;;;;-145.69;49.02;70403.59;5062560;28;20297;-76
2022/05/31 08:33:36;;;;;;;2.72;1.58;;;;;;;-145.69;50.89;70429.47;5074181;28;20195;-77
2022/05/31 08:36:03;;;;;;;3.08;1.55;;;;;;;-145.69;53.20;70399.63;5074082;28;20227;-76
2022/05/31 08:38:35;;;;;;;2.45;1.35;;;;;;;-145.69;52.49;70397.63;5073373;28;20206;-77
2022/05/31 08:41:16;;;;;;;2.05;1.17;;;;;;;-145.69;53.36;70423.50;5073971;28;20206;-77
2022/05/31 08:43:54;;;;;;;5.68;1.67;;;;;;;-145.69;52.94;70405.59;5073638;28;20202;-78
2022/05/31 08:46:31;;;;;;;2.05;1.20;;;;;;;-145.69;51.32;70383.72;5073923;28;20207;-77
2022/05/31 08:49:00;;;;;;;3.95;1.58;;;;;;;-145.69;48.75;70411.56;5073980;28;20202;-78
2022/05/31 08:51:58;;;;;;;6.07;1.50;;;;;;;-145.69;51.41;70391.66;5073692;28;20531;-78
2022/05/31 08:57:31;;;;;;;4.07;1.23;;;;;;;-145.69;48.50;70381.72;5073763;28;20297;-78
2022/05/31 09:00:04;;;;;;;4.63;1.13;;;;;;;-145.69;50.87;70351.88;5073677;28;20205;-79
2022/05/31 09:02:39;;;;;;;4.50;1.23;;;;;;;-145.69;49.18;70393.66;5073597;28;20484;-79
2022/05/31 09:05:12;;;;;;;5.15;1.20;;;;;;;-145.69;49.93;70363.81;5073716;28;20452;-79
2022/05/31 09:07:45;;;;;;;3.78;1.42;;;;;;;-145.69;49.43;70423.50;5073259;28;20747;-77
2022/05/31 09:10:24;;;;;;;2.90;1.60;;;;;;;-145.69;47.20;70379.72;5073596;28;20207;-80
2022/05/31 09:12:55;;;;;;;4.72;1.00;;;;;;;-145.69;46.46;70407.59;5073456;28;20203;-78
2022/05/31 09:15:28;;;;;;;3.60;1.20;;;;;;;-145.69;48.11;70399.63;5073564;28;20233;-79
2022/05/31 09:18:08;;;;;;;10.27;1.38;;;;;;;-145.69;47.95;70383.72;5073150;28;20226;-78
2022/05/31 09:20:46;;;;;;;2.40;1.10;;;;;;;-145.69;46.32;70383.72;5073461;28;20237;-78
2022/05/31 09:23:21;;;;;;;7.75;1.08;;;;;;;-145.69;44.76;70371.78;5073363;28;20592;-79
2022/05/31 09:26:10;;;;;;;3.58;1.00;;;;;;;-145.69;45.80;70349.91;5072984;28;20438;-81
2022/05/31 09:28:43;;;;;;;5.45;1.35;;;;;;;-145.69;45.94;70341.94;5053218;28;20243;-78
2022/05/31 09:31:19;;;;;;;7.45;1.00;;;;;;;-145.69;46.63;70296.19;5053135;28;20565;-78
2022/05/31 09:33:59;;;;;;;4.85;1.10;;;;;;;-145.69;45.75;70286.25;5053391;28;20199;-78
2022/05/31 09:36:36;;;;;;;3.90;1.10;;;;;;;-145.69;44.31;70300.16;5055551;28;20219;-82
2022/05/31 09:39:15;;;;;;;2.83;1.00;;;;;;;-145.69;45.42;70288.22;5072927;28;20199;-78
2022/05/31 09:41:50;;;;;;;3.95;1.23;;;;;;;-145.69;44.27;70264.34;5073204;28;20202;-78
2022/05/31 09:44:24;;;;;;;4.22;1.00;;;;;;;-145.69;42.71;70272.31;5072889;28;20198;-82
2022/05/31 09:46:57;;;;;;;3.22;1.00;;;;;;;-145.69;43.22;70222.56;5073393;28;20203;-78
2022/05/31 09:49:32;;;;;;;3.72;1.13;;;;;;;-145.69;42.69;70200.69;5072957;28;20199;-81
2022/05/31 09:52:00;;;;;;;6.05;1.20;;;;;;;-145.69;40.86;70214.63;5073323;28;20198;-80
2022/05/31 09:57:16;;;;;;;3.90;1.05;;;;;;;-145.69;41.01;70172.84;5072798;28;20320;-79
2022/05/31 09:59:48;;;;;;;10.15;1.10;;;;;;;-145.69;39.98;70184.78;5073022;28;20203;-78
2022/05/31 10:02:25;;;;;;;2.45;1.02;;;;;;;-145.69;39.78;70280.28;5072849;28;20657;-78
2022/05/31 10:05:12;;;;;;;5.43;1.33;;;;;;;-145.69;42.60;70244.47;5072870;28;20205;-78
2022/05/31 10:07:39;;;;;;;2.92;1.00;;;;;;;-145.69;44.95;70210.66;5073099;28;20593;-77
2022/05/31 10:10:09;;;;;;;3.55;1.10;;;;;;;-145.69;43.67;70212.63;5072746;28;20230;-79
2022/05/31 10:12:39;;;;;;;3.30;1.08;;;;;;;-145.69;41.21;70196.72;5072679;28;20199;-80
2022/05/31 10:15:10;;;;;;;3.83;0.93;;;;;;;-145.69;40.78;70208.66;5072446;28;20213;-79
2022/05/31 10:17:42;;;;;;;4.85;1.10;;;;;;;-145.69;42.00;70190.75;5072604;28;20258;-80
2022/05/31 10:20:14;;;;;;;5.40;1.08;;;;;;;-145.69;40.69;70204.69;5052700;28;20203;-79
2022/05/31 10:22:50;;;;;;;2.20;1.23;;;;;;;-145.69;39.51;70212.63;5052557;28;20210;-80
2022/05/31 10:25:23;;;;;;;3.67;1.38;;;;;;;-145.69;40.78;70184.78;5055144;28;20536;-80
2022/05/31 10:27:58;;;;;;;3.83;1.20;;;;;;;-145.69;40.67;70168.88;5052400;28;20235;-78
2022/05/31 10:30:25;;;;;;;5.13;1.20;;;;;;;-145.69;40.08;70220.59;5058612;28;20272;-80
2022/05/31 10:32:56;;;;;;;4.93;1.40;;;;;;;-145.69;42.56;70168.88;5072542;28;20646;-79
2022/05/31 10:35:28;;;;;;;8.25;1.10;;;;;;;-145.69;42.40;70123.13;5072568;28;20206;-78
2022/05/31 10:37:59;;;;;;;2.05;1.13;;;;;;;-145.69;38.04;70145.00;5072727;28;20229;-79
2022/05/31 10:40:39;;;;;;;3.00;1.30;;;;;;;-145.69;40.24;70129.09;5072663;28;20229;-79
2022/05/31 10:43:25;;;;;;;3.35;1.20;;;;;;;-145.69;40.60;70117.16;5072352;28;20226;-79
2022/05/31 10:45:54;;;;;;;3.97;1.20;;;;;;;-145.69;38.14;70073.38;5070978;28;20434;-79
2022/05/31 10:48:20;;;;;;;3.97;1.33;;;;;;;-145.69;37.65;70101.25;5072251;28;20661;-79
2022/05/31 10:50:54;;;;;;;3.65;0.98;;;;;;;-145.69;38.04;70166.88;5072609;28;20206;-79
2022/05/31 10:53:38;;;;;;;4.00;0.95;;;;;;;-145.69;37.37;70172.84;5072230;28;20684;-79
2022/05/31 10:56:12;;;;;;;4.88;0.98;;;;;;;-145.69;37.99;70176.81;5071629;28;20195;-79
2022/05/31 10:58:52;;;;;;;2.22;1.08;;;;;;;-145.69;40.20;70143.00;5072496;28;20801;-79
2022/05/31 11:01:44;;;;;;;2.33;1.08;;;;;;;-145.69;38.47;70077.38;5074772;28;20294;-79
2022/05/31 11:04:24;;;;;;;4.90;1.10;;;;;;;-145.69;38.45;69971.94;5076088;28;20202;-79
2022/05/31 11:07:02;;;;;;;1.95;1.02;;;;;;;-145.69;40.82;69916.25;5075677;28;20213;-79
2022/05/31 11:12:37;;;;;;;3.35;1.27;;;;;;;-145.69;40.44;69834.69;5075668;28;20206;-80
2022/05/31 11:15:20;;;;;;;3.75;1.30;;;;;;;-145.69;35.78;69858.56;5075810;28;20198;-79
2022/05/31 11:18:07;;;;;;;4.85;1.10;;;;;;;-145.69;36.86;69852.59;5075799;28;20585;-80
2022/05/31 11:20:41;;;;;;;4.25;1.13;;;;;;;-145.69;34.62;69908.28;5055355;28;20903;-79
2022/05/31 11:23:30;;;;;;;2.72;1.10;;;;;;;-145.69;36.75;70073.38;5055703;28;20204;-82
2022/05/31 11:26:19;;;;;;;3.47;1.20;;;;;;;-145.69;37.83;70099.25;5055502;28;20234;-81
2022/05/31 11:29:03;;;;;;;1.60;0.80;;;;;;;-145.69;37.60;70021.66;5055593;28;20214;-80
2022/05/31 11:31:44;;;;;;;3.00;1.08;;;;;;;-145.69;35.44;70057.47;5069512;28;20197;-81
2022/05/31 11:34:24;;;;;;;2.47;0.93;;;;;;;-145.69;34.97;69999.78;5075819;28;20225;-82
2022/05/31 11:37:05;;;;;;;4.93;1.27;;;;;;;-145.69;36.83;69934.16;5075129;28;20258;-82
2022/05/31 11:39:53;;;;;;;2.95;1.10;;;;;;;-145.69;34.44;69918.22;5075654;28;20226;-81
2022/05/31 11:42:35;;;;;;;4.32;0.90;;;;;;;-145.69;34.90;69886.41;5074795;28;20203;-82
2022/05/31 11:45:09;;;;;;;1.42;0.70;;;;;;;-145.69;34.47;69896.34;5075584;28;20453;-81
2022/05/31 11:48:08;;;;;;;3.22;0.77;;;;;;;-145.69;36.04;69890.38;5075491;28;20199;-81
2022/05/31 11:50:45;;;;;;;3.15;0.95;;;;;;;-145.69;33.27;69830.72;5075634;28;20209;-83